createdAt,value
2023-02-14T00:01:09.820Z,83.82
2023-02-14T00:04:52.506Z,84.19
2023-02-14T00:08:35.733Z,85.10
2023-02-14T00:12:19.829Z,84.55
2023-02-14T00:16:03.558Z,84.00
2023-02-14T00:19:46.294Z,83.93
2023-02-14T00:23:29.038Z,84.05
2023-02-14T00:27:11.822Z,84.12
2023-02-14T00:30:58.148Z,83.87
2023-02-14T00:34:41.823Z,83.74
2023-02-14T00:38:24.466Z,84.03
2023-02-14T00:42:07.196Z,83.85
2023-02-14T00:45:50.011Z,83.89
2023-02-14T00:49:34.341Z,84.12
2023-02-14T00:53:18.871Z,83.47
2023-02-14T00:57:01.511Z,83.52
2023-02-14T01:00:44.339Z,83.23
2023-02-14T01:04:29.172Z,83.59
2023-02-14T01:08:13.213Z,83.90
2023-02-14T01:11:55.930Z,83.01
2023-02-14T01:15:40.713Z,83.31
2023-02-14T01:19:23.369Z,83.64
2023-02-14T01:23:06.187Z,82.56
2023-02-14T01:26:50.292Z,82.10
2023-02-14T01:30:33.046Z,82.54
2023-02-14T01:34:18.841Z,83.22
2023-02-14T01:38:01.563Z,84.35
2023-02-14T01:41:50.482Z,84.66
2023-02-14T01:45:35.989Z,84.38
2023-02-14T01:49:23.486Z,84.14
2023-02-14T01:53:08.212Z,84.71
2023-02-14T01:56:53.741Z,84.67
2023-02-14T02:00:56.491Z,84.91
2023-02-14T02:04:41.884Z,84.22
2023-02-14T02:08:24.919Z,83.71
2023-02-14T02:12:07.661Z,83.29
2023-02-14T02:16:19.521Z,83.36
2023-02-14T02:20:28.860Z,82.68
2023-02-14T02:24:22.459Z,82.45
2023-02-14T02:28:25.762Z,82.15
2023-02-14T02:32:33.713Z,82.20
2023-02-14T02:36:29.557Z,82.39
2023-02-14T02:40:24.892Z,81.91
2023-02-14T02:44:15.134Z,82.35
2023-02-14T02:48:06.355Z,82.41
2023-02-14T02:52:12.266Z,82.34
2023-02-14T02:56:18.467Z,82.53
2023-02-14T03:00:03.667Z,82.08
2023-02-14T03:04:06.620Z,81.82
2023-02-14T03:07:51.200Z,82.46
2023-02-14T03:11:33.934Z,82.33
2023-02-14T03:15:23.387Z,82.50
2023-02-14T03:19:57.029Z,82.16
2023-02-14T03:23:46.181Z,82.42
2023-02-14T03:27:32.302Z,82.80
2023-02-14T03:31:21.926Z,83.04
2023-02-14T03:35:12.902Z,82.33
2023-02-14T03:39:01.387Z,82.49
2023-02-14T03:42:48.443Z,83.12
2023-02-14T03:46:33.592Z,83.50
2023-02-14T03:50:17.415Z,83.42
2023-02-14T03:54:02.641Z,84.38
2023-02-14T03:57:51.038Z,84.46
2023-02-14T04:01:38.004Z,83.68
2023-02-14T04:05:25.087Z,83.51
2023-02-14T04:09:09.108Z,83.02
2023-02-14T04:12:51.871Z,82.83
2023-02-14T04:16:55.766Z,82.48
2023-02-14T04:20:37.534Z,81.99
2023-02-14T04:24:21.734Z,81.97
2023-02-14T04:28:04.359Z,81.85
2023-02-14T04:31:47.210Z,81.49
2023-02-14T04:35:29.994Z,81.70
2023-02-14T04:39:12.706Z,81.72
2023-02-14T04:42:56.990Z,82.29
2023-02-14T04:46:39.765Z,82.11
2023-02-14T04:50:23.425Z,82.25
2023-02-14T04:54:06.178Z,82.60
2023-02-14T04:57:48.890Z,81.85
2023-02-14T05:01:32.958Z,82.23
2023-02-14T05:05:15.744Z,81.85
2023-02-14T05:08:58.475Z,82.93
2023-02-14T05:12:41.145Z,82.97
2023-02-14T05:16:24.030Z,82.75
2023-02-14T05:20:09.422Z,83.08
2023-02-14T05:23:52.063Z,82.37
2023-02-14T05:27:34.693Z,82.85
2023-02-14T05:31:17.419Z,83.12
2023-02-14T05:35:01.202Z,82.94
2023-02-14T05:38:45.436Z,83.00
2023-02-14T05:42:28.243Z,83.03
2023-02-14T05:46:10.996Z,83.43
2023-02-14T05:49:53.697Z,82.69
2023-02-14T05:53:38.061Z,82.42
2023-02-14T05:57:23.390Z,81.91
2023-02-14T06:01:09.272Z,81.62
2023-02-14T06:04:52.084Z,81.50
2023-02-14T06:08:34.982Z,81.04
2023-02-14T06:12:17.609Z,82.10
2023-02-14T06:16:01.658Z,82.10
2023-02-14T06:19:44.352Z,82.03
2023-02-14T06:23:27.037Z,81.62
2023-02-14T06:27:09.853Z,81.80
2023-02-14T06:30:52.820Z,81.76
2023-02-14T06:34:37.043Z,81.58
2023-02-14T06:38:19.730Z,81.17
2023-02-14T06:42:02.412Z,81.22
2023-02-14T06:45:45.169Z,81.49
2023-02-14T06:49:27.883Z,81.36
2023-02-14T06:53:12.033Z,81.43
2023-02-14T06:56:54.667Z,82.67
2023-02-14T07:00:40.721Z,82.41
2023-02-14T07:04:23.439Z,82.35
2023-02-14T07:08:08.126Z,82.27
2023-02-14T07:11:52.152Z,82.72
2023-02-14T07:15:35.051Z,82.00
2023-02-14T07:19:17.804Z,82.09
2023-02-14T07:23:04.323Z,81.73
2023-02-14T07:26:47.020Z,82.36
2023-02-14T07:30:31.350Z,81.93
2023-02-14T07:34:14.040Z,82.06
2023-02-14T07:37:56.740Z,82.92
2023-02-14T07:41:39.458Z,82.29
2023-02-14T07:45:22.424Z,81.28
2023-02-14T07:49:06.664Z,80.61
2023-02-14T07:52:49.470Z,79.87
2023-02-14T07:56:32.244Z,78.60
2023-02-14T08:00:15.638Z,77.58
2023-02-14T08:03:58.589Z,77.96
2023-02-14T08:07:43.070Z,78.34
2023-02-14T08:11:43.001Z,78.00
2023-02-14T08:15:43.466Z,78.56
2023-02-14T08:19:26.204Z,78.22
2023-02-14T08:23:10.264Z,77.65
2023-02-14T08:26:56.536Z,78.12
2023-02-14T08:30:39.385Z,78.06
2023-02-14T08:34:22.036Z,77.54
2023-02-14T08:38:06.011Z,77.36
2023-02-14T08:41:50.104Z,77.61
2023-02-14T08:45:33.370Z,77.11
2023-02-14T08:49:16.038Z,76.82
2023-02-14T08:53:00.465Z,76.26
2023-02-14T08:56:43.218Z,75.98
2023-02-14T09:00:27.623Z,76.34
2023-02-14T09:04:11.404Z,75.67
2023-02-14T09:07:55.934Z,74.82
2023-02-14T09:11:38.675Z,75.38
2023-02-14T09:15:21.451Z,74.56
2023-02-14T09:19:07.143Z,74.81
2023-02-14T09:22:49.828Z,75.49
2023-02-14T09:26:32.633Z,75.13
2023-02-14T09:30:16.785Z,74.60
2023-02-14T09:34:02.224Z,74.56
2023-02-14T09:38:03.849Z,73.95
2023-02-14T09:42:10.237Z,74.10
2023-02-14T09:45:54.488Z,74.12
2023-02-14T09:49:40.904Z,74.12
2023-02-14T09:53:28.079Z,74.31
2023-02-14T09:57:14.508Z,74.83
2023-02-14T10:01:01.508Z,75.29
2023-02-14T10:04:49.866Z,75.65
2023-02-14T10:08:46.619Z,76.79
2023-02-14T10:12:34.069Z,77.40
2023-02-14T10:16:20.794Z,76.22
2023-02-14T10:20:07.087Z,75.89
2023-02-14T10:23:55.251Z,75.84
2023-02-14T10:27:42.546Z,76.61
2023-02-14T10:31:27.500Z,76.60
2023-02-14T10:35:19.497Z,76.54
2023-02-14T10:39:10.023Z,76.58
2023-02-14T10:42:59.042Z,76.46
2023-02-14T10:46:44.861Z,76.26
2023-02-14T10:50:31.873Z,75.69
2023-02-14T10:54:22.017Z,74.88
2023-02-14T10:58:07.979Z,75.10
2023-02-14T11:01:51.642Z,75.50
2023-02-14T11:05:37.374Z,74.56
2023-02-14T11:09:21.920Z,73.36
2023-02-14T11:13:04.600Z,73.38
2023-02-14T11:16:51.250Z,73.13
2023-02-14T11:20:34.009Z,72.72
2023-02-14T11:24:27.657Z,72.76
2023-02-14T11:28:15.980Z,72.31
2023-02-14T11:32:08.082Z,71.79
2023-02-14T11:35:52.135Z,71.42
2023-02-14T11:39:36.483Z,71.51
2023-02-14T11:43:21.798Z,70.70
2023-02-14T11:47:19.537Z,70.71
2023-02-14T11:51:05.298Z,70.36
2023-02-14T11:54:50.257Z,69.55
2023-02-14T11:58:35.285Z,68.52
2023-02-14T12:02:33.629Z,68.27
2023-02-14T12:06:24.693Z,69.44
2023-02-14T12:10:27.770Z,67.86
2023-02-14T12:14:22.290Z,65.89
2023-02-14T12:18:39.745Z,65.73
2023-02-14T12:22:23.881Z,66.20
2023-02-14T12:26:15.520Z,65.82
2023-02-14T12:30:05.231Z,65.71
2023-02-14T12:33:50.214Z,65.83
2023-02-14T12:37:41.575Z,65.53
2023-02-14T12:41:36.842Z,64.38
2023-02-14T12:45:24.471Z,63.21
2023-02-14T12:49:27.382Z,61.88
2023-02-14T12:53:26.402Z,61.45
2023-02-14T12:57:20.314Z,61.17
2023-02-14T13:01:21.704Z,59.65
2023-02-14T13:05:17.693Z,58.82
2023-02-14T13:09:27.509Z,57.54
2023-02-14T13:13:18.989Z,56.59
2023-02-14T13:17:06.362Z,56.04
2023-02-14T13:20:52.273Z,54.99
2023-02-14T13:24:42.337Z,55.25
2023-02-14T13:28:27.262Z,54.20
2023-02-14T13:32:13.012Z,54.09
2023-02-14T13:35:58.659Z,52.42
2023-02-14T13:39:46.360Z,52.58
2023-02-14T13:43:56.174Z,52.34
2023-02-14T13:47:38.880Z,51.08
2023-02-14T13:51:21.546Z,50.54
2023-02-14T13:55:07.964Z,49.69
2023-02-14T13:58:54.115Z,49.97
2023-02-14T14:02:44.832Z,49.39
2023-02-14T14:06:27.985Z,49.04
2023-02-14T14:10:14.592Z,48.16
2023-02-14T14:14:04.211Z,48.26
2023-02-14T14:17:50.736Z,47.70
2023-02-14T14:21:34.973Z,47.70
2023-02-14T14:25:33.294Z,47.92
2023-02-14T14:29:24.307Z,47.70
2023-02-14T14:33:18.112Z,47.74
2023-02-14T14:37:06.613Z,47.60
2023-02-14T14:40:49.862Z,47.68
2023-02-14T14:44:36.740Z,46.99
2023-02-14T14:48:23.498Z,47.02
2023-02-14T14:52:07.289Z,47.37
2023-02-14T14:55:52.138Z,46.81
2023-02-14T14:59:38.091Z,47.21
2023-02-14T15:03:22.955Z,47.25
2023-02-14T15:07:19.800Z,47.89
2023-02-14T15:11:06.221Z,47.37
2023-02-14T15:14:54.744Z,47.28
2023-02-14T15:18:37.537Z,48.10
2023-02-14T15:22:22.017Z,47.84
2023-02-14T15:26:06.152Z,48.08
2023-02-14T15:29:58.270Z,47.91
2023-02-14T15:33:41.338Z,47.61
2023-02-14T15:37:27.851Z,48.17
2023-02-14T15:41:10.674Z,48.89
2023-02-14T15:45:21.258Z,49.49
2023-02-14T15:49:09.281Z,49.04
2023-02-14T15:52:53.387Z,48.92
2023-02-14T15:56:38.213Z,49.43
2023-02-14T16:00:23.742Z,50.17
2023-02-14T16:04:08.518Z,51.58
2023-02-14T16:08:00.030Z,52.69
2023-02-14T16:11:42.916Z,54.96
2023-02-14T16:15:28.336Z,54.92
2023-02-14T16:19:32.323Z,53.06
2023-02-14T16:23:17.079Z,52.94
2023-02-14T16:27:06.658Z,54.19
2023-02-14T16:30:56.313Z,55.44
2023-02-14T16:34:39.315Z,56.16
2023-02-14T16:38:22.807Z,56.87
2023-02-14T16:42:05.915Z,57.83
2023-02-14T16:45:50.311Z,58.99
2023-02-14T16:49:32.991Z,59.56
2023-02-14T16:53:25.416Z,60.34
2023-02-14T16:57:10.641Z,61.02
2023-02-14T17:00:58.552Z,62.03
2023-02-14T17:04:41.912Z,62.41
2023-02-14T17:08:25.362Z,62.28
2023-02-14T17:12:13.309Z,62.68
2023-02-14T17:15:57.730Z,62.90
2023-02-14T17:19:40.639Z,63.84
2023-02-14T17:23:24.410Z,64.65
2023-02-14T17:27:07.510Z,65.14
2023-02-14T17:30:50.253Z,65.88
2023-02-14T17:34:34.832Z,66.64
2023-02-14T17:38:18.426Z,67.62
2023-02-14T17:42:01.214Z,68.12
2023-02-14T17:45:43.875Z,69.31
2023-02-14T17:49:26.741Z,70.25
2023-02-14T17:53:12.466Z,70.64
2023-02-14T17:56:55.202Z,71.04
2023-02-14T18:00:37.905Z,71.69
2023-02-14T18:04:20.620Z,71.50
2023-02-14T18:08:03.411Z,71.86
2023-02-14T18:11:47.464Z,71.84
2023-02-14T18:15:30.799Z,72.33
2023-02-14T18:19:15.860Z,72.40
2023-02-14T18:22:58.619Z,73.05
2023-02-14T18:26:42.141Z,73.44
2023-02-14T18:30:29.287Z,73.81
2023-02-14T18:34:12.243Z,74.30
2023-02-14T18:37:54.912Z,74.14
2023-02-14T18:41:39.732Z,74.36
2023-02-14T18:45:22.512Z,74.35
2023-02-14T18:49:08.406Z,74.44
2023-02-14T18:52:51.436Z,74.52
2023-02-14T18:56:36.853Z,75.05
2023-02-14T19:00:21.757Z,75.25
2023-02-14T19:04:08.607Z,75.65
2023-02-14T19:07:55.135Z,75.95
2023-02-14T19:11:38.000Z,76.39
2023-02-14T19:15:20.893Z,76.58
2023-02-14T19:19:03.801Z,76.89
2023-02-14T19:22:48.392Z,76.62
2023-02-14T19:26:34.926Z,76.65
2023-02-14T19:30:18.233Z,76.91
2023-02-14T19:34:00.914Z,76.51
2023-02-14T19:37:43.576Z,76.55
2023-02-14T19:41:30.152Z,76.51
2023-02-14T19:45:13.313Z,77.00
2023-02-14T19:48:56.844Z,77.37
2023-02-14T19:52:39.558Z,77.15
2023-02-14T19:56:23.151Z,76.92
2023-02-14T20:00:10.992Z,77.28
2023-02-14T20:03:53.904Z,77.26
2023-02-14T20:07:36.544Z,77.50
2023-02-14T20:11:26.865Z,76.84
2023-02-14T20:15:14.003Z,77.26
2023-02-14T20:18:56.914Z,76.81
2023-02-14T20:22:41.829Z,76.85
2023-02-14T20:26:24.820Z,77.36
2023-02-14T20:30:11.465Z,77.87
2023-02-14T20:33:54.184Z,77.89
2023-02-14T20:37:36.966Z,77.73
2023-02-14T20:41:20.000Z,79.04
2023-02-14T20:45:02.689Z,81.95
2023-02-14T20:48:46.782Z,81.65
2023-02-14T20:52:29.447Z,79.98
2023-02-14T20:56:12.605Z,79.41
2023-02-14T20:59:55.302Z,78.91
2023-02-14T21:03:38.411Z,78.85
2023-02-14T21:07:22.584Z,78.75
2023-02-14T21:11:06.568Z,78.65
2023-02-14T21:14:49.205Z,78.02
2023-02-14T21:18:32.760Z,78.29
2023-02-14T21:22:17.180Z,78.02
2023-02-14T21:26:01.456Z,78.20
2023-02-14T21:29:46.964Z,78.34
2023-02-14T21:33:31.316Z,78.66
2023-02-14T21:37:14.046Z,79.14
2023-02-14T21:41:05.571Z,78.94
2023-02-14T21:45:05.748Z,79.54
2023-02-14T21:49:06.096Z,78.67
2023-02-14T21:52:48.778Z,78.23
2023-02-14T21:56:32.906Z,78.73
2023-02-14T22:00:17.382Z,78.58
2023-02-14T22:04:00.278Z,79.08
2023-02-14T22:07:42.985Z,78.94
2023-02-14T22:11:27.685Z,78.30
2023-02-14T22:15:11.874Z,78.30
2023-02-14T22:18:54.568Z,78.39
2023-02-14T22:22:39.872Z,78.88
2023-02-14T22:26:27.758Z,79.06
2023-02-14T22:30:12.815Z,78.83
2023-02-14T22:33:55.683Z,79.09
2023-02-14T22:37:38.393Z,79.18
2023-02-14T22:41:25.722Z,79.43
2023-02-14T22:45:09.279Z,79.54
2023-02-14T22:48:57.054Z,79.48
2023-02-14T22:52:39.741Z,79.61
2023-02-14T22:56:24.925Z,79.72
2023-02-14T23:00:11.565Z,80.01
2023-02-14T23:03:56.734Z,79.50
2023-02-14T23:07:39.520Z,80.26
2023-02-14T23:11:23.908Z,79.50
2023-02-14T23:15:30.129Z,79.96
2023-02-14T23:19:33.900Z,79.93
2023-02-14T23:23:16.565Z,79.16
2023-02-14T23:26:59.327Z,79.00
2023-02-14T23:30:42.022Z,79.25
2023-02-14T23:34:28.192Z,79.78
2023-02-14T23:38:10.927Z,80.27
2023-02-14T23:41:55.481Z,79.35
2023-02-14T23:45:39.743Z,79.49
2023-02-14T23:49:24.188Z,79.10
2023-02-14T23:53:08.259Z,79.77
2023-02-14T23:56:52.199Z,80.48
